• Join FlightAware (Why Join?)
  • Login
  • US Flag 
06:29AM EDT


 

Airport Tracker/Info


-or-


 

Live Flight TrackerFlight Track Log ✈ UAL4422 ✈ 22-Apr-2013 ✈ KIAH - KMAF

Flight Track Log - Related Links

Times and Time Zones

All times are in EDT time to prevent confusion due to time zone crossing. See the UAL4422 flight status page for this flight to view local times or setup timezone preferences in your user account.

Time Position Orientation Groundspeed Altitude Reporting Facility
EDT Latitude Longitude Course Direction KTS MPH feet Rate Location/Type
04:23PM 29.9617 -95.3436 276° West 146 168 700  Level Houston Center
04:24PM 29.9283 -95.3692 214° Southwest 213 245 2,400 1,620 Climbing Houston Center
04:25PM 29.9197 -95.3878 242° Southwest 235 270 2,700 2,040 Climbing Houston Center
04:25PM 29.8922 -95.4339 235° Southwest 252 290 4,500 2,400 Climbing Houston Center
04:26PM 29.8817 -95.4525 237° Southwest 242 278 5,200 2,280 Climbing Houston Center
04:26PM 29.8550 -95.5106 242° Southwest 268 308 6,900 2,220 Climbing Houston Center
04:27PM 30.0298 -95.7680 277° West  Level FlightAware Approximate
04:27PM 29.8553 -95.5283 271° West 258 297 7,500  Level Houston Center
04:27PM 29.8750 -95.5903 290° West 272 313 9,300 2,460 Climbing Houston Center
04:28PM 30.0398 -95.8772 276° West  Level FlightAware Approximate
04:28PM 29.8869 -95.6258 291° West 268 308 10,100  Level Houston Center
04:29PM 30.0489 -95.9866 276° West  Level FlightAware Approximate
04:29PM 29.9164 -95.7089 292° West 274 315 12,300  Level Houston Center
04:30PM 29.9458 -95.7950 292° West 285 328 13,600 960 Climbing Houston Center
04:31PM 29.9797 -95.8928 292° West 316 364 14,300 720 Climbing Houston Center
04:32PM 30.0139 -95.9950 291° West 332 382 15,200 960 Climbing Houston Center
04:33PM 30.0583 -96.1214 292° West 351 404 16,400 1,020 Climbing Houston Center
04:34PM 30.0939 -96.2275 291° West 355 409 17,400 960 Climbing Houston Center
04:35PM 30.1147 -96.3428 282° West 358 412 18,400 960 Climbing Houston Center
04:36PM 30.1306 -96.4533 279° West 357 411 19,400 960 Climbing Houston Center
04:37PM 30.1486 -96.5689 280° West 362 417 20,400 1,440 Climbing Houston Center
04:38PM 30.1706 -96.7100 280° West 372 428 22,400 1,980 Climbing Houston Center
04:39PM 30.1872 -96.8192 280° West 358 412 24,600 1,920 Climbing Houston Center
04:40PM 30.2019 -96.9228 279° West 341 392 26,400 1,740 Climbing Houston Center
04:41PM 30.2172 -97.0236 280° West 326 375 28,200 1,320 Climbing Houston Center
04:42PM 30.2322 -97.1228 280° West 318 366 29,200 840 Climbing Houston Center
04:43PM 30.2475 -97.2292 279° West 330 380 30,000 900 Climbing Houston Center
04:44PM 30.2675 -97.3608 280° West 345 397 31,100 1,020 Climbing Houston Center
04:45PM 30.2842 -97.4758 280° West 360 414 32,200 960 Climbing Houston Center
04:46PM 30.2994 -97.5911 279° West 364 419 33,200 840 Climbing Houston Center
04:47PM 30.3158 -97.7061 279° West 363 418 34,000 360 Climbing Houston Center
04:48PM 30.3328 -97.8239 279° West 372 428 34,000  Level Houston Center
04:50PM 30.3536 -97.9672 280° West 376 433 34,000  Level Houston Center
04:51PM 30.3708 -98.0842 280° West 371 427 34,000  Level Houston Center
04:52PM 30.3858 -98.1994 279° West 365 420 34,000  Level Houston Center
04:53PM 30.4025 -98.3156 279° West 365 420 34,000  Level Houston Center
04:54PM 30.4178 -98.4319 279° West 367 422 34,000  Level Houston Center
04:55PM 30.4342 -98.5736 278° West 362 417 34,000  Level Houston Center
04:56PM 30.4517 -98.6894 280° West 365 420 34,000  Level Houston Center
04:57PM 30.4664 -98.8072 278° West 369 425 34,000  Level Houston Center
04:58PM 30.4792 -98.9183 278° West 366 421 34,000  Level Houston Center
04:59PM 30.4947 -99.0356 279° West 368 423 34,000  Level Houston Center
05:00PM 30.5144 -99.1767 279° West 370 426 34,000  Level Houston Center
05:01PM 30.5300 -99.2944 279° West 371 427 34,000  Level Houston Center
05:02PM 30.5453 -99.4131 279° West 373 429 34,000  Level Houston Center
05:03PM 30.5603 -99.5311 278° West 373 429 34,000  Level Houston Center
05:04PM 30.5769 -99.6489 279° West 372 428 34,000  Level Houston Center
05:05PM 30.5917 -99.7669 278° West 372 428 34,000  Level Houston Center
05:06PM 30.6736 -99.8772 311° West 405 466 34,000  Level Houston Center
05:08PM 30.8511 -100.0203 325° Northwest 392 451 34,000  Level Houston Center
05:09PM 30.9400 -100.0942 325° Northwest 393 452 34,000  Level Houston Center
05:10PM 31.0297 -100.1669 325° Northwest 394 453 34,000  Level Houston Center
05:11PM 31.1364 -100.2536 325° Northwest 392 451 34,000  Level Houston Center
05:13PM 31.3153 -100.4011 325° Northwest 395 455 34,000  Level Houston Center
05:14PM 31.3847 -100.4794 316° Northwest 395 455 34,000  Level Fort Worth Center
05:15PM 31.4236 -100.5925 292° West 374 430 34,000 -60 Level Fort Worth Center
05:16PM 31.4583 -100.7058 290° West 369 425 33,900 -600 Descending Fort Worth Center
05:17PM 31.4969 -100.8217 291° West 374 430 32,800 -1,560 Descending Fort Worth Center
05:18PM 31.5356 -100.9378 291° West 380 437 30,800 -2,040 Descending Fort Worth Center
05:19PM 31.5781 -101.0589 292° West 390 449 28,800 -2,040 Descending Fort Worth Center
05:20PM 31.6142 -101.1797 289° West 395 455 26,800 -2,040 Descending Fort Worth Center
05:21PM 31.6583 -101.3058 292° West 401 461 24,800 -2,040 Descending Fort Worth Center
05:22PM 31.6981 -101.4322 290° West 413 475 22,800 -2,040 Descending Fort Worth Center
05:23PM 31.7378 -101.5561 291° West 413 475 20,700 -2,040 Descending Fort Worth Center
05:24PM 31.7758 -101.6725 291° West 403 464 18,800 -2,400 Descending Fort Worth Center
05:25PM 31.8136 -101.7867 291° West 393 452 16,000 -3,240 Descending Fort Worth Center
05:26PM 31.8433 -101.8908 289° West 365 420 12,400 -3,000 Descending Fort Worth Center
05:27PM 31.9061 -101.9478 322° Northwest 314 361 10,000 -2,100 Descending Fort Worth Center
05:28PM 31.9297 -101.8706 70° East 157 181 8,200 -1,980 Descending Fort Worth Center
05:29PM 31.8686 -101.8822 189° South 67 77 6,100 -1,200 Descending Fort Worth Center
05:30PM 31.8803 -101.9636 280° West 141 162 5,900 -120 Descending Fort Worth Center
05:31PM 31.8922 -102.0400 280° West 202 232 5,900  Level Fort Worth Center